首页
METAR-TAF:

METAR-TAF

机场 :

约翰·卡尔·芒罗哈密尔顿国际机场

哈密尔顿, 安大略省, 加拿大

纬度: 43-10N, 经度: 079-56W, 海拔: 237米

当前天气观测

该预报发布于31分钟前的00:00 UTC
风速8节,风向西南
温度 23°C
湿度 69%
气压 1012 hPa
能見度: 24.1公里
少量云层高于4500英尺

METAR: CYHM 260000Z 23008KT 15SM FEW045 23/17 A2988 RMK CU1 SLP118 DENSITY ALT 2000FT

时间: 20:31 (00:31 UTC)

预报

该预报发布于53分钟前的23:38 UTC
预报有效从26日的 00点(UTC)到 26日的 24点(UTC)
风速7节,风向西南
能見度: 10公里
少量云层高于4000英尺
从 26日的 0300点(UTC)
风速10节,风向西南
能見度: 10公里
多云层高于6000英尺
短暂存在
从 26日的 03点(UTC)到 26日的 06点(UTC)
能見度: 10公里
小阵雨
从 26日的 0600点(UTC)
风速10节,风向西南
能見度: 9.7公里
少量云层高于1500英尺
多云层高于4000英尺
轻雾
成为
从 26日的 11点(UTC)到 26日的 13点(UTC)
风速12节,风向西转西南,有时为22节阵风
从 26日的 1500点(UTC)
风速12节,风向西转西南,有时为22节阵风
能見度: 10公里
少量云层高于3000英尺
成为
从 26日的 16点(UTC)到 26日的 18点(UTC)
风速15节,风向西,有时为25节阵风
成为
从 26日的 22点(UTC)到 26日的 24点(UTC)
风速8节,风向西

TAF: CYHM 252338Z 2600/2624 22007KT P6SM FEW040 FM260300 22010KT P6SM BKN060 TEMPO 2603/2606 P6SM -SHRA FM260600 23010KT 6SM BR FEW015 BKN040 BECMG 2611/2613 25012G22KT FM261500 25012G22KT P6SM FEW030 BECMG 2616/2618 26015G25KT BECMG 2622/2624 28008KT RMK NXT FCST BY 260600Z

超过4000个机场的气象观测和天气预报(METAR&TAF报告)。

可查询的气象台以黄色和红色小点在地图上表示。

将鼠标移到小点上方,可查看气象台名称。

然后点击查看天气观测和预报。

如需切换地图:点击带黑十字的绿色按钮放大地图;点击带横线的绿色按钮缩小地图;或者点击绿色箭头查看邻近地区的地图。


METAR-TAF: